Time;durP1;ratioP1;P1;durP2;ratioP2;P2;SDS_P1;SDS_P2;PMS_P1;PMS_P2;Temp;Humidity;BMP_temperature;BMP_pressure;BME280_temperature;BME280_humidity;BME280_pressure;Samples;Min_cycle;Max_cycle;Signal;HPM_P1;HPM_P2
2021/03/09 00:01:08;;;;;;;166.00;59.95;;;4.10;99.90;;;;;;5071051;28;20086;-59
2021/03/09 00:03:33;;;;;;;160.27;60.83;;;4.10;99.90;;;;;;5073506;28;20029;-60
2021/03/09 00:05:59;;;;;;;157.07;58.30;;;4.00;99.90;;;;;;5072368;28;20036;-59
2021/03/09 00:08:25;;;;;;;157.93;63.00;;;4.00;99.90;;;;;;5071201;28;20540;-60
2021/03/09 00:10:50;;;;;;;165.00;63.83;;;4.00;99.90;;;;;;5096852;22;20422;-55
2021/03/09 00:13:16;;;;;;;167.75;64.55;;;4.00;99.90;;;;;;5076017;28;20066;-56
2021/03/09 00:15:41;;;;;;;167.25;63.97;;;3.90;99.90;;;;;;5078088;28;20058;-52
2021/03/09 00:18:10;;;;;;;168.02;63.60;;;3.90;99.90;;;;;;5069116;28;20107;-52
2021/03/09 00:20:35;;;;;;;158.23;60.17;;;3.80;99.90;;;;;;5053128;28;20403;-52
2021/03/09 00:23:01;;;;;;;161.93;61.50;;;3.80;99.90;;;;;;5034761;28;20041;-55
2021/03/09 00:25:26;;;;;;;168.13;62.35;;;3.70;99.90;;;;;;5050445;28;20029;-56
2021/03/09 00:27:52;;;;;;;164.45;64.00;;;3.70;99.90;;;;;;5041034;28;20030;-55
2021/03/09 00:30:19;;;;;;;169.35;64.47;;;3.70;99.90;;;;;;5041384;28;20025;-57
2021/03/09 00:32:44;;;;;;;161.63;61.60;;;3.70;99.90;;;;;;5041336;28;20112;-56
2021/03/09 00:35:11;;;;;;;160.57;61.40;;;3.70;99.90;;;;;;5041823;28;20158;-55
2021/03/09 00:37:36;;;;;;;170.75;60.25;;;3.70;99.90;;;;;;5040927;28;20395;-57
2021/03/09 00:40:02;;;;;;;168.20;61.53;;;3.60;99.90;;;;;;5052347;28;20025;-57
2021/03/09 00:42:28;;;;;;;162.50;58.90;;;3.60;99.90;;;;;;5034584;28;21559;-57
2021/03/09 00:44:53;;;;;;;158.60;61.28;;;3.70;99.90;;;;;;5050523;28;20053;-55
2021/03/09 00:47:19;;;;;;;150.68;58.25;;;3.70;99.90;;;;;;5039711;28;20033;-57
2021/03/09 00:49:44;;;;;;;164.07;61.50;;;3.80;99.90;;;;;;5042358;28;20074;-56
2021/03/09 00:52:10;;;;;;;172.15;60.80;;;3.80;99.90;;;;;;5033170;28;20159;-56
2021/03/09 00:54:35;;;;;;;168.65;60.17;;;3.80;99.90;;;;;;5032893;28;20390;-56
2021/03/09 00:57:01;;;;;;;160.15;62.63;;;3.80;99.90;;;;;;5044767;28;20022;-53
2021/03/09 00:59:27;;;;;;;167.10;60.97;;;3.70;99.90;;;;;;5053581;28;20902;-56
2021/03/09 01:01:52;;;;;;;158.00;61.30;;;3.70;99.90;;;;;;5044585;28;20434;-57
2021/03/09 01:04:18;;;;;;;157.32;60.30;;;3.70;99.90;;;;;;5046103;28;20086;-59
2021/03/09 01:06:43;;;;;;;162.32;60.78;;;3.70;99.90;;;;;;5038843;28;20644;-55
2021/03/09 01:09:09;;;;;;;166.07;62.97;;;3.60;99.90;;;;;;5050413;28;20099;-57
2021/03/09 01:11:35;;;;;;;162.82;59.95;;;3.60;99.90;;;;;;5035815;28;20037;-57
2021/03/09 01:14:00;;;;;;;152.63;59.08;;;3.60;99.90;;;;;;5053660;28;20100;-65
2021/03/09 01:16:26;;;;;;;159.82;60.15;;;3.70;99.90;;;;;;5047727;28;20407;-57
2021/03/09 01:18:51;;;;;;;155.70;58.53;;;3.70;99.90;;;;;;5050404;28;20033;-59
2021/03/09 01:21:17;;;;;;;162.95;60.30;;;3.70;99.90;;;;;;5038415;28;20033;-56
2021/03/09 01:23:42;;;;;;;156.70;59.97;;;3.70;99.90;;;;;;5040331;28;20025;-55
2021/03/09 01:26:08;;;;;;;151.85;57.03;;;3.80;99.90;;;;;;5043457;28;20019;-56
2021/03/09 01:28:33;;;;;;;152.15;59.80;;;3.80;99.90;;;;;;5051235;28;20456;-55
2021/03/09 01:30:59;;;;;;;155.63;59.75;;;3.70;99.90;;;;;;5049174;28;20028;-57
2021/03/09 01:33:24;;;;;;;154.07;60.00;;;3.80;99.90;;;;;;5051275;28;20025;-52
2021/03/09 01:35:50;;;;;;;143.98;59.13;;;3.80;99.90;;;;;;5043341;28;20022;-56
2021/03/09 01:38:15;;;;;;;160.85;59.38;;;3.80;99.90;;;;;;5045741;28;20030;-57
2021/03/09 01:40:41;;;;;;;154.00;58.60;;;3.80;99.90;;;;;;5040843;28;20124;-57
2021/03/09 01:43:07;;;;;;;156.07;60.63;;;3.80;99.90;;;;;;5042851;28;20117;-56
2021/03/09 01:45:33;;;;;;;149.60;56.58;;;3.70;99.90;;;;;;5039113;28;20041;-57
2021/03/09 01:48:04;;;;;;;153.05;56.67;;;3.70;99.90;;;;;;5031283;28;20037;-55
2021/03/09 01:50:32;;;;;;;153.70;57.22;;;3.50;99.90;;;;;;5038598;28;20025;-56
2021/03/09 01:53:05;;;;;;;152.95;56.63;;;3.50;99.90;;;;;;5038533;28;20029;-56
2021/03/09 01:55:31;;;;;;;152.93;58.97;;;3.40;99.90;;;;;;5054777;28;20025;-56
2021/03/09 01:57:57;;;;;;;148.63;56.88;;;3.40;99.90;;;;;;5042134;28;20071;-56
2021/03/09 02:00:22;;;;;;;161.40;60.10;;;3.40;99.90;;;;;;5043969;28;20120;-53
2021/03/09 02:02:48;;;;;;;157.05;56.30;;;3.40;99.90;;;;;;5037579;28;20129;-53
2021/03/09 02:05:14;;;;;;;168.90;62.10;;;3.50;99.90;;;;;;5049902;28;20220;-57
2021/03/09 02:07:40;;;;;;;147.95;57.55;;;3.40;99.90;;;;;;5037940;28;20113;-55
2021/03/09 02:10:12;;;;;;;148.52;59.67;;;3.50;99.90;;;;;;5049256;28;20091;-54
2021/03/09 02:12:53;;;;;;;149.55;58.95;;;3.50;99.90;;;;;;5036351;28;20434;-55
2021/03/09 02:15:46;;;;;;;149.80;56.47;;;3.50;99.90;;;;;;5042420;28;20446;-53
2021/03/09 02:18:43;;;;;;;150.73;58.05;;;3.60;99.90;;;;;;5035918;28;20401;-56
2021/03/09 02:21:30;;;;;;;158.95;59.92;;;3.60;99.90;;;;;;5040098;28;20059;-57
2021/03/09 02:24:17;;;;;;;154.38;59.40;;;3.60;99.90;;;;;;5044581;28;20025;-56
2021/03/09 02:27:13;;;;;;;149.70;57.83;;;3.70;99.90;;;;;;5037757;28;21426;-56
2021/03/09 02:29:42;;;;;;;151.88;58.63;;;3.70;99.90;;;;;;5041183;28;20414;-54
2021/03/09 02:32:13;;;;;;;156.38;58.85;;;3.70;99.90;;;;;;5043689;28;20469;-56
2021/03/09 02:34:49;;;;;;;156.80;58.50;;;3.70;99.90;;;;;;5052271;28;20038;-55
2021/03/09 02:37:17;;;;;;;154.50;60.20;;;3.70;99.90;;;;;;5040536;28;20037;-56
2021/03/09 02:39:45;;;;;;;149.45;59.17;;;3.70;99.90;;;;;;5036903;28;20496;-57
2021/03/09 02:42:16;;;;;;;149.82;58.78;;;3.60;99.90;;;;;;5051074;28;20475;-56
2021/03/09 02:44:44;;;;;;;154.95;58.50;;;3.60;99.90;;;;;;5043728;28;20037;-57
2021/03/09 02:47:14;;;;;;;152.70;60.88;;;3.50;99.90;;;;;;5044093;28;20044;-57
2021/03/09 02:49:43;;;;;;;145.60;56.47;;;3.50;99.90;;;;;;5043762;28;20556;-57
2021/03/09 02:52:16;;;;;;;157.85;60.05;;;3.40;99.90;;;;;;5036892;28;20033;-55
2021/03/09 02:54:44;;;;;;;161.57;60.00;;;3.40;99.90;;;;;;5037273;28;20053;-56
2021/03/09 02:57:12;;;;;;;159.93;58.92;;;3.30;99.90;;;;;;5037181;28;20020;-53
2021/03/09 02:59:40;;;;;;;153.00;59.45;;;3.40;99.90;;;;;;5042134;28;20029;-56
2021/03/09 03:02:06;;;;;;;154.35;60.33;;;3.40;99.90;;;;;;5042907;28;20517;-54
2021/03/09 03:04:32;;;;;;;158.60;59.97;;;3.40;99.90;;;;;;5039786;28;20041;-56
2021/03/09 03:06:59;;;;;;;150.00;59.35;;;3.40;99.90;;;;;;5037353;28;20040;-55
2021/03/09 03:09:26;;;;;;;147.93;57.22;;;3.40;99.90;;;;;;5032329;28;20025;-57
2021/03/09 03:11:54;;;;;;;146.18;56.47;;;3.50;99.90;;;;;;5046301;28;20478;-57
2021/03/09 03:14:20;;;;;;;142.65;56.35;;;3.50;99.90;;;;;;5035936;28;20025;-57
2021/03/09 03:16:46;;;;;;;156.85;59.55;;;3.40;99.90;;;;;;5045051;28;20093;-56
2021/03/09 03:19:13;;;;;;;159.95;60.70;;;3.30;99.90;;;;;;5041791;28;20057;-57
2021/03/09 03:21:40;;;;;;;143.88;58.15;;;3.30;99.90;;;;;;5032152;28;20029;-56
2021/03/09 03:24:08;;;;;;;151.35;58.30;;;3.20;99.90;;;;;;5048317;28;20509;-53
2021/03/09 03:26:40;;;;;;;160.25;56.58;;;3.20;99.90;;;;;;5051063;28;20021;-57
2021/03/09 03:29:07;;;;;;;160.00;59.15;;;3.10;99.90;;;;;;5051402;28;20103;-56
2021/03/09 03:31:33;;;;;;;157.00;60.00;;;3.10;99.90;;;;;;5041964;28;20024;-56
2021/03/09 03:33:59;;;;;;;157.88;59.92;;;3.10;99.90;;;;;;5049405;28;20025;-55
2021/03/09 03:36:25;;;;;;;148.88;56.65;;;3.10;99.90;;;;;;5049868;28;20091;-57
2021/03/09 03:38:54;;;;;;;156.05;61.53;;;3.20;99.90;;;;;;5041274;28;20098;-57
2021/03/09 03:41:20;;;;;;;162.63;60.78;;;3.20;99.90;;;;;;5053548;28;20026;-56
2021/03/09 03:43:46;;;;;;;158.48;63.92;;;3.20;99.90;;;;;;5040892;28;20091;-57
2021/03/09 03:46:11;;;;;;;157.02;57.90;;;3.20;99.90;;;;;;5054719;28;20474;-53
2021/03/09 03:48:38;;;;;;;161.15;59.78;;;3.20;99.90;;;;;;5043314;28;20071;-59
2021/03/09 03:51:07;;;;;;;162.27;58.83;;;3.20;99.90;;;;;;5052899;28;20439;-57
2021/03/09 03:53:57;;;;;;;158.68;59.78;;;3.20;99.90;;;;;;5049392;28;20086;-56
2021/03/09 03:56:34;;;;;;;148.57;55.72;;;3.20;99.90;;;;;;5035145;28;20061;-55
2021/03/09 03:59:18;;;;;;;164.10;62.13;;;3.20;99.90;;;;;;5042927;28;20553;-54
2021/03/09 04:01:46;;;;;;;162.77;61.50;;;3.10;99.90;;;;;;5042447;28;20034;-57
2021/03/09 04:04:14;;;;;;;166.70;61.47;;;3.10;99.90;;;;;;5051318;28;20052;-57
2021/03/09 04:06:45;;;;;;;169.75;61.78;;;3.10;99.90;;;;;;5037400;28;20084;-56
2021/03/09 04:09:12;;;;;;;158.63;57.28;;;3.00;99.90;;;;;;5039499;28;20042;-57
2021/03/09 04:11:39;;;;;;;167.02;59.20;;;3.00;99.90;;;;;;5038105;28;20546;-56
2021/03/09 04:14:07;;;;;;;157.27;57.75;;;3.00;99.90;;;;;;5058020;28;20438;-56
2021/03/09 04:16:35;;;;;;;163.50;60.88;;;3.00;99.90;;;;;;5033169;28;20045;-57
2021/03/09 04:19:03;;;;;;;150.75;56.83;;;3.00;99.90;;;;;;5042397;28;20029;-56
2021/03/09 04:21:29;;;;;;;166.23;59.25;;;3.10;99.90;;;;;;5050793;28;20107;-56
2021/03/09 04:23:56;;;;;;;156.48;59.33;;;3.10;99.90;;;;;;5056936;28;20071;-57
2021/03/09 04:26:23;;;;;;;149.77;57.63;;;3.10;99.90;;;;;;5036381;28;20057;-56
2021/03/09 04:28:51;;;;;;;142.05;56.10;;;3.10;99.90;;;;;;5052018;28;20021;-56
2021/03/09 04:31:18;;;;;;;151.73;60.35;;;3.10;99.90;;;;;;5043687;28;20035;-55
2021/03/09 04:33:46;;;;;;;159.73;58.30;;;3.10;99.90;;;;;;5048369;28;20025;-57
2021/03/09 04:36:13;;;;;;;161.07;57.72;;;3.10;99.90;;;;;;5051743;28;20087;-56
2021/03/09 04:38:39;;;;;;;166.38;62.70;;;3.10;99.90;;;;;;5049207;28;20017;-57
2021/03/09 04:41:05;;;;;;;167.10;61.10;;;3.10;99.90;;;;;;5055656;28;20219;-57
2021/03/09 04:43:30;;;;;;;158.20;56.92;;;3.00;99.90;;;;;;5049865;28;20112;-55
2021/03/09 04:45:57;;;;;;;165.70;62.63;;;3.10;99.90;;;;;;5036219;28;20037;-57
2021/03/09 04:48:24;;;;;;;158.35;60.72;;;3.10;99.90;;;;;;5043770;28;20078;-55
2021/03/09 04:50:51;;;;;;;169.05;60.80;;;3.10;99.90;;;;;;5047762;28;20727;-57
2021/03/09 04:53:18;;;;;;;159.25;60.03;;;3.10;99.90;;;;;;5044823;28;20499;-56
2021/03/09 04:55:43;;;;;;;168.85;59.33;;;3.10;99.90;;;;;;5034946;28;20365;-56
2021/03/09 04:58:09;;;;;;;160.25;58.60;;;3.10;99.90;;;;;;5049514;28;20070;-56
2021/03/09 05:00:34;;;;;;;174.32;59.83;;;3.10;99.90;;;;;;5049687;28;20039;-60
2021/03/09 05:03:00;;;;;;;162.25;60.97;;;3.10;99.90;;;;;;5044990;28;20391;-57
2021/03/09 05:05:25;;;;;;;172.85;62.67;;;3.10;99.90;;;;;;5031929;28;20056;-57
2021/03/09 05:07:52;;;;;;;168.85;58.97;;;3.10;99.90;;;;;;5038838;28;20051;-56
2021/03/09 05:10:18;;;;;;;160.02;56.72;;;3.10;99.90;;;;;;5056388;28;20033;-57
2021/03/09 05:12:46;;;;;;;163.43;60.78;;;3.10;99.90;;;;;;5035632;28;20530;-56
2021/03/09 05:15:13;;;;;;;161.25;57.88;;;3.10;99.90;;;;;;5044336;28;20033;-56
2021/03/09 05:17:39;;;;;;;150.65;58.17;;;3.10;99.90;;;;;;5041638;28;20036;-56
2021/03/09 05:20:06;;;;;;;148.68;56.60;;;3.20;99.90;;;;;;5052907;28;20063;-57
2021/03/09 05:22:31;;;;;;;165.70;60.75;;;3.20;99.90;;;;;;5038565;28;20479;-57
2021/03/09 05:24:57;;;;;;;147.60;56.10;;;3.20;99.90;;;;;;5051511;28;20086;-56
2021/03/09 05:27:22;;;;;;;148.23;55.05;;;3.20;99.90;;;;;;5040602;28;20109;-56
2021/03/09 05:29:48;;;;;;;143.10;53.08;;;3.20;99.90;;;;;;5050289;28;20040;-56
2021/03/09 05:32:14;;;;;;;162.50;55.95;;;3.20;99.90;;;;;;5044733;28;20030;-56
2021/03/09 05:34:39;;;;;;;147.75;57.85;;;3.20;99.90;;;;;;5045145;28;20053;-55
2021/03/09 05:37:08;;;;;;;155.15;56.80;;;3.20;99.90;;;;;;5048183;28;20427;-57
2021/03/09 05:39:34;;;;;;;140.73;54.90;;;3.20;99.90;;;;;;5053198;28;20116;-54
2021/03/09 05:41:59;;;;;;;155.85;54.65;;;3.20;99.90;;;;;;5036236;28;20444;-55
2021/03/09 05:44:25;;;;;;;140.77;53.05;;;3.20;99.90;;;;;;5045957;28;20492;-55
2021/03/09 05:46:50;;;;;;;147.52;54.40;;;3.20;99.90;;;;;;5039850;28;20078;-55
2021/03/09 05:49:16;;;;;;;132.32;53.75;;;3.30;99.90;;;;;;5055852;28;20025;-57
2021/03/09 05:51:41;;;;;;;142.95;51.85;;;3.30;99.90;;;;;;5031928;28;20076;-56
2021/03/09 05:54:07;;;;;;;146.05;54.65;;;3.40;99.90;;;;;;5050521;28;20442;-57
2021/03/09 05:56:33;;;;;;;138.13;53.75;;;3.40;99.90;;;;;;5043188;28;20029;-57
2021/03/09 05:58:58;;;;;;;132.90;52.42;;;3.50;99.90;;;;;;5048197;28;20056;-55
2021/03/09 06:01:24;;;;;;;131.65;49.35;;;3.50;99.90;;;;;;5044945;28;20461;-55
2021/03/09 06:03:49;;;;;;;131.00;52.60;;;3.50;99.90;;;;;;5032563;28;20044;-53
2021/03/09 06:06:15;;;;;;;138.48;53.15;;;3.60;99.90;;;;;;5036745;28;20021;-53
2021/03/09 06:08:41;;;;;;;130.40;52.38;;;3.60;99.90;;;;;;5043091;28;20034;-56
2021/03/09 06:11:17;;;;;;;125.93;49.63;;;3.60;99.90;;;;;;5043320;28;20475;-57
2021/03/09 06:13:44;;;;;;;126.57;49.45;;;3.70;99.90;;;;;;5043468;28;20022;-57
2021/03/09 06:16:11;;;;;;;128.57;49.50;;;3.70;99.90;;;;;;5047269;28;20042;-56
2021/03/09 06:18:37;;;;;;;127.03;50.92;;;3.80;99.90;;;;;;5047683;28;20029;-56
2021/03/09 06:21:09;;;;;;;127.18;49.78;;;3.80;99.90;;;;;;5051086;28;20053;-55
2021/03/09 06:23:35;;;;;;;113.95;47.30;;;3.90;99.90;;;;;;5043995;28;20440;-55
2021/03/09 06:26:01;;;;;;;123.75;47.67;;;3.90;99.90;;;;;;5049203;28;20614;-53
2021/03/09 06:28:31;;;;;;;123.32;48.25;;;4.00;99.90;;;;;;5046794;28;20402;-55
2021/03/09 06:31:01;;;;;;;116.47;47.67;;;4.00;99.90;;;;;;5037074;28;20492;-54
2021/03/09 06:33:29;;;;;;;115.28;47.90;;;4.00;99.90;;;;;;5045755;28;20401;-54
2021/03/09 06:36:00;;;;;;;126.03;50.80;;;4.00;99.90;;;;;;5047532;28;20028;-56
2021/03/09 06:38:26;;;;;;;115.53;48.10;;;4.10;99.90;;;;;;5040725;28;20029;-53
2021/03/09 06:41:12;;;;;;;120.47;49.80;;;4.10;99.90;;;;;;5049955;28;20478;-54
2021/03/09 06:43:41;;;;;;;105.57;44.63;;;4.10;99.90;;;;;;5042910;28;20053;-55
2021/03/09 06:46:18;;;;;;;108.75;46.42;;;4.20;99.90;;;;;;5056559;28;20033;-54
2021/03/09 06:48:49;;;;;;;102.47;40.42;;;4.20;99.90;;;;;;5045830;28;20068;-54
2021/03/09 06:51:32;;;;;;;98.05;42.63;;;4.20;99.90;;;;;;5040190;28;20113;-55
2021/03/09 06:54:11;;;;;;;106.03;42.20;;;4.20;99.90;;;;;;5048695;28;20018;-55
2021/03/09 06:56:39;;;;;;;107.05;46.22;;;4.20;99.90;;;;;;5040738;28;20515;-57
2021/03/09 06:59:22;;;;;;;100.60;42.40;;;4.20;99.90;;;;;;5043546;28;20502;-55
2021/03/09 07:02:15;;;;;;;97.63;41.78;;;4.20;99.90;;;;;;5042962;28;20502;-53
2021/03/09 07:04:48;;;;;;;92.70;38.50;;;4.20;99.90;;;;;;5036973;28;20141;-55
2021/03/09 07:07:23;;;;;;;100.45;42.65;;;4.30;99.90;;;;;;5037510;28;20163;-54
2021/03/09 07:09:55;;;;;;;88.90;40.28;;;4.20;99.90;;;;;;5044322;28;20034;-54
2021/03/09 07:12:20;;;;;;;105.88;40.85;;;4.30;99.90;;;;;;5039663;28;20441;-54
2021/03/09 07:14:46;;;;;;;108.38;43.08;;;4.20;99.90;;;;;;5050339;28;20026;-56
2021/03/09 07:17:14;;;;;;;103.45;41.67;;;4.20;99.90;;;;;;5047374;28;20102;-56
2021/03/09 07:19:44;;;;;;;108.00;44.03;;;4.20;99.90;;;;;;5053622;28;20037;-57
2021/03/09 07:22:12;;;;;;;110.55;41.42;;;4.20;99.90;;;;;;5041730;28;20058;-56
2021/03/09 07:24:49;;;;;;;99.13;39.42;;;4.20;99.90;;;;;;5032331;28;20508;-56
2021/03/09 07:27:24;;;;;;;97.85;40.13;;;4.20;99.90;;;;;;5049096;28;20040;-56
2021/03/09 07:29:54;;;;;;;106.15;42.63;;;4.30;99.90;;;;;;5046192;28;20063;-56
2021/03/09 07:32:22;;;;;;;98.82;40.30;;;4.30;99.90;;;;;;5045689;28;20060;-54
2021/03/09 07:34:49;;;;;;;92.53;40.00;;;4.20;99.90;;;;;;5056470;28;20025;-58
2021/03/09 07:37:17;;;;;;;97.45;41.53;;;4.20;99.90;;;;;;5037178;28;20072;-53
2021/03/09 07:42:19;;;;;;;108.10;43.53;;;4.20;99.90;;;;;;5687496;22;20056;-55
2021/03/09 07:44:47;;;;;;;103.00;41.45;;;4.30;99.90;;;;;;5067274;28;20048;-54
2021/03/09 07:47:25;;;;;;;99.20;39.05;;;4.20;99.90;;;;;;5062401;28;20036;-56
2021/03/09 07:49:52;;;;;;;98.95;39.00;;;4.30;99.90;;;;;;5064820;28;20074;-56
2021/03/09 07:52:18;;;;;;;97.53;38.00;;;4.30;99.90;;;;;;5072600;28;20052;-55
2021/03/09 07:55:02;;;;;;;92.07;34.53;;;4.40;99.90;;;;;;5063182;28;20012;-55
2021/03/09 07:57:29;;;;;;;89.10;35.60;;;4.40;99.90;;;;;;5071225;28;20047;-56
2021/03/09 07:59:55;;;;;;;78.15;35.35;;;4.40;99.90;;;;;;5067902;28;20266;-53
2021/03/09 08:02:53;;;;;;;88.13;36.58;;;4.40;99.90;;;;;;5070699;28;20036;-54
2021/03/09 08:08:55;;;;;;;82.38;32.88;;;4.30;99.90;;;;;;5058313;28;20078;-56
2021/03/09 08:14:42;;;;;;;81.40;31.55;;;4.30;99.90;;;;;;5061147;28;20098;-57
2021/03/09 08:17:27;;;;;;;84.40;32.85;;;4.30;99.90;;;;;;5069974;28;20421;-56
2021/03/09 08:19:53;;;;;;;75.13;28.60;;;4.30;99.90;;;;;;5067143;28;20035;-58
2021/03/09 08:22:37;;;;;;;68.18;29.60;;;4.30;99.90;;;;;;5067867;28;20028;-54
2021/03/09 08:25:03;;;;;;;73.83;30.70;;;4.30;99.90;;;;;;5070517;28;20405;-54
2021/03/09 08:27:28;;;;;;;74.63;31.67;;;4.30;99.90;;;;;;5065741;28;20067;-54
2021/03/09 08:30:27;;;;;;;77.13;30.10;;;4.30;99.90;;;;;;5068910;28;20083;-56
2021/03/09 08:32:53;;;;;;;68.75;27.45;;;4.30;99.90;;;;;;5064386;28;20020;-57
2021/03/09 08:35:19;;;;;;;72.32;29.63;;;4.30;99.90;;;;;;5070158;28;20035;-54
2021/03/09 08:37:48;;;;;;;80.53;30.35;;;4.30;99.90;;;;;;5071522;28;20023;-53
2021/03/09 08:40:16;;;;;;;72.93;28.98;;;4.20;99.90;;;;;;5068358;28;20409;-54
2021/03/09 08:43:00;;;;;;;65.13;27.30;;;4.20;99.90;;;;;;5067051;28;20060;-52
2021/03/09 08:45:55;;;;;;;69.22;30.00;;;4.20;99.90;;;;;;5068813;28;20103;-53
2021/03/09 08:48:46;;;;;;;62.53;25.58;;;4.30;99.90;;;;;;5070463;28;20028;-56
2021/03/09 08:51:43;;;;;;;71.85;27.30;;;4.30;99.90;;;;;;5069231;28;20026;-56
2021/03/09 08:54:20;;;;;;;75.68;29.02;;;4.30;99.90;;;;;;5068042;28;20031;-54
2021/03/09 08:56:46;;;;;;;65.20;26.80;;;4.40;99.90;;;;;;5069809;28;20127;-53
2021/03/09 08:59:12;;;;;;;65.97;27.63;;;4.40;99.90;;;;;;5071162;28;20056;-54
2021/03/09 09:01:37;;;;;;;64.40;25.98;;;4.40;99.90;;;;;;5050398;28;20033;-53
2021/03/09 09:04:14;;;;;;;69.25;28.38;;;4.40;99.90;;;;;;5070172;28;20029;-55
2021/03/09 09:06:39;;;;;;;67.50;26.15;;;4.40;99.90;;;;;;5064176;28;20028;-55
2021/03/09 09:09:05;;;;;;;71.28;28.63;;;4.50;99.90;;;;;;5069496;28;20424;-54
2021/03/09 09:11:30;;;;;;;68.28;30.27;;;4.50;99.90;;;;;;5070031;28;20059;-52
2021/03/09 09:13:56;;;;;;;66.57;27.95;;;4.50;99.90;;;;;;5070131;28;20028;-52
2021/03/09 09:16:21;;;;;;;76.15;31.08;;;4.50;99.90;;;;;;5069456;28;20036;-61
2021/03/09 09:18:47;;;;;;;72.22;30.85;;;4.60;99.90;;;;;;5070856;28;20119;-55
2021/03/09 09:21:13;;;;;;;82.65;33.10;;;4.60;99.90;;;;;;5034167;28;20036;-54
2021/03/09 09:23:38;;;;;;;76.80;34.50;;;4.70;99.90;;;;;;5068882;28;20381;-55
2021/03/09 09:26:04;;;;;;;80.75;36.30;;;4.70;99.90;;;;;;5069519;28;20143;-53
2021/03/09 09:28:52;;;;;;;76.63;35.47;;;4.60;99.90;;;;;;5066243;28;20415;-56
2021/03/09 09:31:22;;;;;;;68.95;32.55;;;4.70;99.90;;;;;;5059395;28;20082;-56
2021/03/09 09:33:53;;;;;;;71.13;32.38;;;4.70;99.90;;;;;;5064122;28;20062;-56
2021/03/09 09:36:23;;;;;;;66.45;32.72;;;4.70;99.90;;;;;;5069801;28;20017;-54
2021/03/09 09:38:53;;;;;;;74.97;32.70;;;4.70;99.90;;;;;;5066493;28;20086;-54
2021/03/09 09:44:41;;;;;;;70.30;30.98;;;4.70;99.90;;;;;;5057506;28;20055;-54
2021/03/09 09:48:02;;;;;;;69.40;29.42;;;4.70;99.90;;;;;;5066254;28;20481;-52
2021/03/09 09:50:28;;;;;;;64.35;29.45;;;4.80;99.90;;;;;;5061187;28;20021;-52
2021/03/09 09:52:59;;;;;;;66.28;30.75;;;4.80;99.90;;;;;;5061633;28;20107;-56
2021/03/09 09:55:27;;;;;;;76.13;33.28;;;4.90;99.90;;;;;;5065063;28;20277;-54
2021/03/09 09:57:56;;;;;;;67.13;32.90;;;4.80;99.90;;;;;;5065236;28;20478;-55
2021/03/09 10:00:28;;;;;;;76.15;32.17;;;4.80;99.90;;;;;;5064433;28;20551;-54
2021/03/09 10:03:20;;;;;;;67.13;30.42;;;4.80;99.90;;;;;;5067991;28;20059;-56
2021/03/09 10:06:15;;;;;;;59.30;28.38;;;4.70;99.90;;;;;;5063954;28;20039;-56
2021/03/09 10:08:41;;;;;;;60.30;30.42;;;4.70;99.90;;;;;;5063306;28;20033;-52
2021/03/09 10:11:06;;;;;;;59.55;29.40;;;4.70;99.90;;;;;;5066739;28;20078;-55
2021/03/09 10:13:32;;;;;;;53.95;26.88;;;4.70;99.90;;;;;;5071633;28;20032;-57
2021/03/09 10:15:58;;;;;;;50.67;26.30;;;4.60;99.90;;;;;;5066758;28;20040;-55
2021/03/09 10:18:32;;;;;;;53.85;29.25;;;4.60;99.90;;;;;;5067681;28;20100;-56
2021/03/09 10:21:31;;;;;;;60.05;29.05;;;4.60;99.90;;;;;;5066456;28;20227;-56
2021/03/09 10:23:59;;;;;;;52.85;27.88;;;4.50;99.90;;;;;;5066822;28;20520;-55
2021/03/09 10:26:34;;;;;;;51.50;28.27;;;4.30;99.90;;;;;;5066621;28;20024;-54
2021/03/09 10:29:31;;;;;;;53.53;27.67;;;4.30;99.90;;;;;;5060689;28;20024;-57
2021/03/09 10:31:58;;;;;;;54.17;26.80;;;4.10;99.90;;;;;;5064971;28;20029;-53
2021/03/09 10:34:41;;;;;;;57.97;29.90;;;4.10;99.90;;;;;;5065331;28;20043;-54
2021/03/09 10:37:14;;;;;;;62.00;30.45;;;4.10;99.90;;;;;;5066442;28;20537;-54
2021/03/09 10:39:54;;;;;;;60.60;30.45;;;4.00;99.90;;;;;;5064988;28;20044;-52
2021/03/09 10:42:51;;;;;;;68.03;31.13;;;4.10;99.90;;;;;;5062141;28;20033;-55
2021/03/09 10:45:19;;;;;;;73.50;37.47;;;4.10;99.90;;;;;;5063579;28;20463;-56
2021/03/09 10:47:53;;;;;;;79.13;39.60;;;4.10;99.90;;;;;;5065337;28;20024;-52
2021/03/09 10:50:24;;;;;;;84.32;41.95;;;4.10;99.90;;;;;;5066515;28;20074;-53
2021/03/09 10:52:50;;;;;;;86.72;43.10;;;4.10;99.90;;;;;;5066762;28;20039;-57
2021/03/09 10:55:16;;;;;;;97.22;46.20;;;4.20;99.90;;;;;;5067526;28;20103;-55
2021/03/09 10:57:42;;;;;;;99.53;47.38;;;4.30;99.90;;;;;;5066944;28;20513;-56
2021/03/09 11:00:11;;;;;;;96.88;46.78;;;4.30;99.90;;;;;;5066899;28;20036;-56
2021/03/09 11:02:37;;;;;;;86.50;43.83;;;4.40;99.90;;;;;;5065577;28;20087;-56
2021/03/09 11:05:04;;;;;;;63.83;32.40;;;4.50;99.90;;;;;;5056515;28;20352;-55
2021/03/09 11:07:30;;;;;;;49.90;26.73;;;4.50;99.90;;;;;;5065811;28;20108;-52
2021/03/09 11:09:55;;;;;;;54.47;27.17;;;4.40;99.90;;;;;;5067783;28;20123;-52
2021/03/09 11:12:21;;;;;;;54.78;26.88;;;4.40;99.90;;;;;;5063762;28;20133;-54
2021/03/09 11:14:47;;;;;;;56.47;27.48;;;4.40;99.90;;;;;;5064206;28;20024;-56
2021/03/09 11:17:12;;;;;;;52.60;26.65;;;4.40;99.90;;;;;;5047242;28;20444;-57
2021/03/09 11:19:38;;;;;;;49.45;25.27;;;4.40;99.90;;;;;;5065596;28;20630;-56
2021/03/09 11:22:04;;;;;;;54.50;25.90;;;4.30;99.90;;;;;;5047143;28;20041;-56
2021/03/09 11:24:30;;;;;;;49.33;26.48;;;4.20;99.90;;;;;;5065251;28;20058;-56
2021/03/09 11:26:59;;;;;;;55.28;27.50;;;4.30;99.90;;;;;;5066445;28;20064;-54
2021/03/09 11:29:29;;;;;;;51.80;25.10;;;4.30;99.90;;;;;;5065191;28;20075;-53
2021/03/09 11:31:55;;;;;;;52.92;27.10;;;4.30;99.90;;;;;;5064429;28;20036;-53
2021/03/09 11:34:25;;;;;;;59.03;27.83;;;4.40;99.90;;;;;;5065437;28;20291;-55
2021/03/09 11:36:52;;;;;;;55.83;28.73;;;4.40;99.90;;;;;;5064910;28;20021;-52
2021/03/09 11:39:18;;;;;;;57.28;28.42;;;4.40;99.90;;;;;;5065535;28;20158;-54
2021/03/09 11:41:44;;;;;;;50.95;25.75;;;4.50;99.90;;;;;;5065218;28;20107;-52
2021/03/09 11:44:10;;;;;;;53.63;27.67;;;4.50;99.90;;;;;;5065896;28;20757;-55
2021/03/09 11:46:37;;;;;;;57.22;29.40;;;4.60;99.90;;;;;;5067072;28;20564;-56
2021/03/09 11:49:04;;;;;;;53.97;26.98;;;4.60;99.90;;;;;;5065015;28;20090;-55
2021/03/09 11:51:30;;;;;;;53.83;27.58;;;4.60;99.90;;;;;;5059595;28;20028;-56
2021/03/09 11:53:56;;;;;;;47.25;24.17;;;4.60;99.90;;;;;;5061603;28;20497;-55
2021/03/09 11:56:22;;;;;;;51.45;26.58;;;4.70;99.90;;;;;;5064284;28;20031;-55
2021/03/09 11:58:47;;;;;;;52.03;26.60;;;4.70;99.90;;;;;;5069167;28;20024;-55
2021/03/09 12:01:38;;;;;;;49.13;25.70;;;4.70;99.90;;;;;;5063346;28;20486;-59
2021/03/09 12:04:04;;;;;;;52.28;27.15;;;4.70;99.90;;;;;;5062928;28;20074;-56
2021/03/09 12:06:29;;;;;;;53.13;27.48;;;4.70;99.90;;;;;;5068934;28;20440;-55
2021/03/09 12:08:55;;;;;;;55.78;29.33;;;4.80;99.90;;;;;;5068648;28;20112;-55
2021/03/09 12:11:20;;;;;;;71.32;30.30;;;4.90;99.90;;;;;;5068081;28;20025;-55
2021/03/09 12:13:46;;;;;;;58.65;31.05;;;4.90;99.90;;;;;;5069289;28;20032;-55
2021/03/09 12:16:12;;;;;;;64.90;29.60;;;4.90;99.90;;;;;;5068682;28;20502;-53
2021/03/09 12:18:37;;;;;;;61.65;28.05;;;5.00;99.90;;;;;;5066237;28;20043;-54
2021/03/09 12:21:04;;;;;;;66.30;31.50;;;5.00;99.90;;;;;;5053689;28;20286;-54
2021/03/09 12:23:30;;;;;;;78.30;36.10;;;5.10;99.90;;;;;;5060475;28;20024;-53
2021/03/09 12:26:17;;;;;;;92.55;41.15;;;5.10;99.90;;;;;;5064811;28;20525;-55
2021/03/09 12:28:43;;;;;;;75.22;35.00;;;5.20;99.90;;;;;;5056602;28;20029;-55
2021/03/09 12:31:08;;;;;;;77.95;34.13;;;5.20;99.90;;;;;;5062192;28;20032;-56
2021/03/09 12:33:34;;;;;;;62.97;30.98;;;5.20;99.90;;;;;;5066148;28;20039;-54
2021/03/09 12:36:00;;;;;;;62.33;31.38;;;5.20;99.90;;;;;;5068573;28;20024;-56
2021/03/09 12:38:27;;;;;;;66.47;33.08;;;5.10;99.90;;;;;;5066245;28;20033;-54
2021/03/09 12:40:53;;;;;;;67.80;32.22;;;5.10;99.90;;;;;;5065538;28;20013;-57
2021/03/09 12:43:18;;;;;;;66.82;32.35;;;5.10;99.90;;;;;;5066390;28;20031;-55
2021/03/09 12:46:09;;;;;;;72.97;32.97;;;5.20;99.90;;;;;;5067414;28;20043;-56
2021/03/09 12:48:35;;;;;;;67.28;34.00;;;5.20;99.90;;;;;;5069501;28;20065;-55
2021/03/09 12:51:00;;;;;;;69.40;31.50;;;5.20;99.90;;;;;;5063494;28;20382;-55
2021/03/09 12:53:26;;;;;;;74.32;33.78;;;5.30;99.90;;;;;;5067172;28;20047;-56
2021/03/09 12:55:51;;;;;;;71.03;34.20;;;5.30;99.90;;;;;;5067469;28;20540;-54